
Distance (Route):
Temperature : 13.9°C
Humidity : 43.5%
Pressure : 737.6hPa| Receiver | Date | Latitude | Longitude | Direction | Speed | Altitude | Climb | Temperature | Humidity | Pressure | Voltage | Killtimer | Uptime | BKT | XDATA |
|---|---|---|---|---|---|---|---|---|---|---|---|---|---|---|---|
| AUTORXJP | 2026-09-06 02:36:05 | 43.58634 | 5.16310 | 151° | 47km/h | 2872m | -2.2m/s | 13.9°C | 43.5% | 737.6hPa | 0V | 00:00:00 | 00:00:00 | 00:00:00 | |
| AUTORXJP | 2026-09-06 02:35:34 | 43.59119 | 5.15861 | 153° | 55km/h | 2980m | -2.3m/s | 13.1°C | 44.1% | 728.1hPa | 0V | 00:00:00 | 00:00:00 | 00:00:00 | |
| AUTORXJP | 2026-09-06 02:33:30 | 43.60486 | 5.14622 | 139° | 58km/h | 3296m | -3.1m/s | 10.5°C | 48.1% | 701.1hPa | 0V | 00:00:00 | 00:00:00 | 00:00:00 | |
| AUTORXJP | 2026-09-06 02:32:59 | 43.60923 | 5.14259 | 150° | 51km/h | 3389m | -2.0m/s | 9.9°C | 49.1% | 693.3hPa | 0V | 00:00:00 | 00:00:00 | 00:00:00 | |
| AUTORXJP | 2026-09-06 02:32:27 | 43.61230 | 5.13949 | 145° | 66km/h | 3463m | -2.0m/s | 9.4°C | 51.0% | 687.2hPa | 0V | 00:00:00 | 00:00:00 | 00:00:00 | |
| AUTORXJP | 2026-09-06 02:31:56 | 43.61675 | 5.13570 | 139° | 60km/h | 3561m | -2.1m/s | 8.5°C | 52.6% | 679.2hPa | 0V | 00:00:00 | 00:00:00 | 00:00:00 | |
| AUTORXJP | 2026-09-06 02:31:25 | 43.61861 | 5.13402 | 153° | 62km/h | 3597m | -2.0m/s | 8.3°C | 52.5% | 676.2hPa | 0V | 00:00:00 | 00:00:00 | 00:00:00 | |
| AUTORXJP | 2026-09-06 02:30:54 | 43.62271 | 5.13057 | 155° | 60km/h | 3677m | -1.8m/s | 7.7°C | 48.7% | 669.5hPa | 0V | 00:00:00 | 00:00:00 | 00:00:00 | |
| AUTORXJP | 2026-09-06 02:30:23 | 43.62707 | 5.12713 | 156° | 55km/h | 3759m | -1.3m/s | 7.0°C | 49.0% | 663.0hPa | 0V | 00:00:00 | 00:00:00 | 00:00:00 | |
| AUTORXJP | 2026-09-06 02:29:52 | 43.63003 | 5.12462 | 153° | 62km/h | 3813m | -2.5m/s | 6.6°C | 50.3% | 658.6hPa | 0V | 00:00:00 | 00:00:00 | 00:00:00 | |
| AUTORXJP | 2026-09-06 02:29:21 | 43.63361 | 5.12160 | 144° | 60km/h | 3874m | -1.5m/s | 6.0°C | 50.8% | 653.7hPa | 0V | 00:00:00 | 00:00:00 | 00:00:00 | |
| AUTORXJP | 2026-09-06 02:28:50 | 43.63749 | 5.11871 | 142° | 47km/h | 3934m | -2.1m/s | 5.5°C | 53.0% | 649.0hPa | 0V | 00:00:00 | 00:00:00 | 00:00:00 | |
| AUTORXJP | 2026-09-06 02:28:19 | 43.64101 | 5.11566 | 148° | 49km/h | 3986m | -1.5m/s | 5.0°C | 54.6% | 644.8hPa | 0V | 00:00:00 | 00:00:00 | 00:00:00 | |
| AUTORXJP | 2026-09-06 02:27:48 | 43.64465 | 5.11234 | 150° | 47km/h | 4038m | -0.5m/s | 4.6°C | 55.1% | 640.8hPa | 0V | 00:00:00 | 00:00:00 | 00:00:00 | |
| AUTORXJP | 2026-09-06 02:27:17 | 43.64804 | 5.10845 | 149° | 62km/h | 4086m | -1.3m/s | 4.2°C | 56.7% | 636.9hPa | 0V | 00:00:00 | 00:00:00 | 00:00:00 | |
| AUTORXJP | 2026-09-06 02:26:46 | 43.65150 | 5.10492 | 138° | 62km/h | 4135m | -2.3m/s | 3.7°C | 58.2% | 633.0hPa | 0V | 00:00:00 | 00:00:00 | 00:00:00 | |
| AUTORXJP | 2026-09-06 02:26:15 | 43.65533 | 5.10147 | 146° | 49km/h | 4189m | -0.7m/s | 3.4°C | 57.4% | 629.0hPa | 0V | 00:00:00 | 00:00:00 | 00:00:00 | |
| AUTORXJP | 2026-09-06 02:25:43 | 43.65915 | 5.09761 | 149° | 51km/h | 4237m | -1.8m/s | 3.1°C | 55.6% | 625.0hPa | 0V | 00:00:00 | 00:00:00 | 00:00:00 | |
| AUTORXJP | 2026-09-06 02:25:12 | 43.66226 | 5.09419 | 139° | 62km/h | 4290m | -0.1m/s | 2.9°C | 55.5% | 621.1hPa | 0V | 00:00:00 | 00:00:00 | 00:00:00 | |
| AUTORXJP | 2026-09-06 02:24:41 | 43.66544 | 5.09046 | 134° | 57km/h | 4346m | -1.8m/s | 2.5°C | 54.7% | 616.6hPa | 0V | 00:00:00 | 00:00:00 | 00:00:00 | |
| AUTORXJP | 2026-09-06 02:24:10 | 43.66854 | 5.08663 | 129° | 47km/h | 4417m | -1.3m/s | 2.0°C | 55.9% | 611.5hPa | 0V | 00:00:00 | 00:00:00 | 00:00:00 | |
| AUTORXJP | 2026-09-06 02:23:39 | 43.67130 | 5.08249 | 127° | 44km/h | 4485m | -1.8m/s | 1.4°C | 56.8% | 606.2hPa | 0V | 00:00:00 | 00:00:00 | 00:00:00 | |
| AUTORXJP | 2026-09-06 02:23:08 | 43.67433 | 5.07827 | 146° | 47km/h | 4559m | -2.7m/s | 1.0°C | 54.5% | 600.5hPa | 0V | 00:00:00 | 00:00:00 | 00:00:00 | |
| AUTORXJP | 2026-09-06 02:22:37 | 43.67754 | 5.07484 | 155° | 44km/h | 4641m | -2.8m/s | 0.5°C | 0% | 594.4hPa | 0V | 00:00:00 | 00:00:00 | 00:00:00 | |
| AUTORXJP | 2026-09-06 02:22:06 | 43.68069 | 5.07201 | 155° | 51km/h | 4721m | -2.7m/s | 0.0°C | 52.4% | 588.4hPa | 0V | 00:00:00 | 00:00:00 | 00:00:00 | |
| AUTORXJP | 2026-09-06 02:21:35 | 43.68388 | 5.06992 | 148° | 49km/h | 4801m | -2.6m/s | -0.6°C | 56.1% | 582.6hPa | 0V | 00:00:00 | 00:00:00 | 00:00:00 | |
| AUTORXJP | 2026-09-06 02:21:04 | 43.68694 | 5.06768 | 147° | 49km/h | 4881m | -2.3m/s | -1.3°C | 58.6% | 576.8hPa | 0V | 00:00:00 | 00:00:00 | 00:00:00 | |
| AUTORXJP | 2026-09-06 02:20:33 | 43.68972 | 5.06551 | 137° | 44km/h | 4960m | -2.5m/s | -2.0°C | 60.7% | 571.1hPa | 0V | 00:00:00 | 00:00:00 | 00:00:00 | |
| AUTORXJP | 2026-09-06 02:20:02 | 43.69231 | 5.06312 | 133° | 42km/h | 5040m | -2.5m/s | -2.6°C | 62.0% | 565.4hPa | 0V | 00:00:00 | 00:00:00 | 00:00:00 | |
| AUTORXJP | 2026-09-06 02:19:31 | 43.69474 | 5.06064 | 128° | 35km/h | 5119m | -2.5m/s | -3.3°C | 64.0% | 559.7hPa | 0V | 00:00:00 | 00:00:00 | 00:00:00 | |
| AUTORXJP | 2026-09-06 02:18:59 | 43.69706 | 5.05809 | 129° | 38km/h | 5198m | -2.5m/s | -3.8°C | 67.1% | 554.1hPa | 0V | 00:00:00 | 00:00:00 | 00:00:00 | |
| AUTORXJP | 2026-09-06 02:18:28 | 43.69953 | 5.05585 | 133° | 33km/h | 5278m | -2.4m/s | -4.2°C | 65.0% | 548.5hPa | 0V | 00:00:00 | 00:00:00 | 00:00:00 | |
| AUTORXJP | 2026-09-06 02:17:57 | 43.70172 | 5.05411 | 140° | 33km/h | 5353m | -2.4m/s | -4.3°C | 60.4% | 543.4hPa | 0V | 00:00:00 | 00:00:00 | 00:00:00 | |
| AUTORXJP | 2026-09-06 02:17:26 | 43.70403 | 5.05256 | 139° | 26km/h | 5424m | -2.3m/s | -4.8°C | 58.0% | 538.5hPa | 0V | 00:00:00 | 00:00:00 | 00:00:00 | |
| AUTORXJP | 2026-09-06 02:16:55 | 43.70651 | 5.05069 | 162° | 26km/h | 5496m | -2.2m/s | -5.3°C | 61.4% | 533.6hPa | 0V | 00:00:00 | 00:00:00 | 00:00:00 | |
| AUTORXJP | 2026-09-06 02:16:24 | 43.70905 | 5.04861 | 162° | 40km/h | 5567m | -2.3m/s | -5.7°C | 60.2% | 528.7hPa | 0V | 00:00:00 | 00:00:00 | 00:00:00 | |
| AUTORXJP | 2026-09-06 02:15:53 | 43.71159 | 5.04669 | 159° | 44km/h | 5638m | -2.3m/s | -6.3°C | 60.4% | 523.9hPa | 0V | 00:00:00 | 00:00:00 | 00:00:00 | |
| AUTORXJP | 2026-09-06 02:15:22 | 43.71422 | 5.04456 | 159° | 44km/h | 5712m | -2.3m/s | -6.9°C | 62.7% | 519.0hPa | 0V | 00:00:00 | 00:00:00 | 00:00:00 | |
| AUTORXJP | 2026-09-06 02:14:51 | 43.71699 | 5.04221 | 154° | 35km/h | 5785m | -2.3m/s | -7.2°C | 63.6% | 514.2hPa | 0V | 00:00:00 | 00:00:00 | 00:00:00 | |
| AUTORXJP | 2026-09-06 02:14:20 | 43.71981 | 5.03962 | 139° | 37km/h | 5861m | -2.4m/s | -7.8°C | 68.1% | 509.2hPa | 0V | 00:00:00 | 00:00:00 | 00:00:00 | |
| AUTORXJP | 2026-09-06 02:13:49 | 43.72261 | 5.03659 | 130° | 46km/h | 5939m | -2.6m/s | -8.5°C | 71.9% | 504.1hPa | 0V | 00:00:00 | 00:00:00 | 00:00:00 | |
| AUTORXJP | 2026-09-06 02:13:18 | 43.72546 | 5.03320 | 136° | 55km/h | 6019m | -2.7m/s | -9.2°C | 74.1% | 498.9hPa | 0V | 00:00:00 | 00:00:00 | 00:00:00 | |
| AUTORXJP | 2026-09-06 02:12:46 | 43.72829 | 5.02982 | 131° | 58km/h | 6103m | -2.8m/s | -9.8°C | 75.9% | 493.6hPa | 0V | 00:00:00 | 00:00:00 | 00:00:00 | |
| AUTORXJP | 2026-09-06 02:12:15 | 43.73127 | 5.02591 | 138° | 60km/h | 6192m | -3.0m/s | -10.5°C | 75.7% | 487.9hPa | 0V | 00:00:00 | 00:00:00 | 00:00:00 | |
| AUTORXJP | 2026-09-06 02:11:44 | 43.73412 | 5.02213 | 143° | 51km/h | 6286m | -3.1m/s | -10.6°C | 64.7% | 482.0hPa | 0V | 00:00:00 | 00:00:00 | 00:00:00 | |
| AUTORXJP | 2026-09-06 02:11:13 | 43.73667 | 5.01867 | 142° | 37km/h | 6376m | -3.0m/s | -11.1°C | 61.9% | 476.3hPa | 0V | 00:00:00 | 00:00:00 | 00:00:00 | |
| AUTORXJP | 2026-09-06 02:10:42 | 43.73890 | 5.01541 | 124° | 33km/h | 6467m | -2.8m/s | -11.7°C | 59.0% | 470.7hPa | 0V | 00:00:00 | 00:00:00 | 00:00:00 | |
| AUTORXJP | 2026-09-06 02:10:11 | 43.74111 | 5.01211 | 119° | 40km/h | 6553m | -2.5m/s | -12.4°C | 58.3% | 465.4hPa | 0V | 00:00:00 | 00:00:00 | 00:00:00 | |
| AUTORXJP | 2026-09-06 02:09:40 | 43.74336 | 5.00903 | 142° | 46km/h | 6635m | -2.5m/s | -13.0°C | 54.3% | 460.5hPa | 0V | 00:00:00 | 00:00:00 | 00:00:00 | |
| AUTORXJP | 2026-09-06 02:09:09 | 43.74541 | 5.00631 | 132° | 26km/h | 6714m | -2.5m/s | -13.4°C | 48.7% | 455.8hPa | 0V | 00:00:00 | 00:00:00 | 00:00:00 | |
| AUTORXJP | 2026-09-06 02:08:38 | 43.74685 | 5.00317 | 107° | 38km/h | 6787m | -2.5m/s | -13.8°C | 46.6% | 451.4hPa | 0V | 00:00:00 | 00:00:00 | 00:00:00 | |
| AUTORXJP | 2026-09-06 02:08:07 | 43.74831 | 4.99941 | 121° | 47km/h | 6858m | -2.4m/s | -14.2°C | 46.9% | 447.1hPa | 0V | 00:00:00 | 00:00:00 | 00:00:00 | |
| AUTORXJP | 2026-09-06 02:07:36 | 43.75001 | 4.99540 | 128° | 40km/h | 6926m | -2.0m/s | -14.7°C | 51.2% | 443.2hPa | 0V | 00:00:00 | 00:00:00 | 00:00:00 | |
| AUTORXJP | 2026-09-06 02:07:05 | 43.75150 | 4.99105 | 114° | 37km/h | 6989m | -1.9m/s | -15.1°C | 52.6% | 439.5hPa | 0V | 00:00:00 | 00:00:00 | 00:00:00 | |
| AUTORXJP | 2026-09-06 02:06:34 | 43.75299 | 4.98653 | 104° | 37km/h | 7049m | -1.9m/s | -15.4°C | 51.1% | 436.0hPa | 0V | 00:00:00 | 00:00:00 | 00:00:00 | |
| AUTORXJP | 2026-09-06 02:05:00 | 43.75697 | 4.97442 | 113° | 29km/h | 7246m | -2.2m/s | -16.7°C | 46.6% | 424.8hPa | 0V | 00:00:00 | 00:00:00 | 00:00:00 | |
| AUTORXJP | 2026-09-06 02:04:29 | 43.75781 | 4.97047 | 92° | 40km/h | 7319m | -2.4m/s | -17.1°C | 40.3% | 420.6hPa | 0V | 00:00:00 | 00:00:00 | 00:00:00 | |
| AUTORXJP | 2026-09-06 02:03:58 | 43.75845 | 4.96623 | 98° | 44km/h | 7398m | -2.7m/s | -16.8°C | 26.7% | 416.2hPa | 0V | 00:00:00 | 00:00:00 | 00:00:00 | |
| AUTORXJP | 2026-09-06 02:03:27 | 43.75924 | 4.96271 | 126° | 26km/h | 7484m | -3.2m/s | -17.1°C | 19.5% | 411.4hPa | 0V | 00:00:00 | 00:00:00 | 00:00:00 | |
| AUTORXJP | 2026-09-06 02:02:56 | 43.75968 | 4.96020 | 94° | 31km/h | 7577m | -2.8m/s | -17.8°C | 18.0% | 406.4hPa | 0V | 00:00:00 | 00:00:00 | 00:00:00 | |
| AUTORXJP | 2026-09-06 02:02:25 | 43.76049 | 4.95792 | 140° | 24km/h | 7669m | -2.9m/s | -18.4°C | 17.1% | 401.4hPa | 0V | 00:00:00 | 00:00:00 | 00:00:00 | |
| AUTORXJP | 2026-09-06 02:01:54 | 43.76109 | 4.95641 | 86° | 18km/h | 7758m | -2.8m/s | -19.2°C | 18.8% | 396.5hPa | 0V | 00:00:00 | 00:00:00 | 00:00:00 | |
| AUTORXJP | 2026-09-06 02:01:23 | 43.76192 | 4.95417 | 139° | 29km/h | 7850m | -3.0m/s | -19.8°C | 19.7% | 391.6hPa | 0V | 00:00:00 | 00:00:00 | 00:00:00 | |
| AUTORXJP | 2026-09-06 02:00:52 | 43.76277 | 4.95234 | 92° | 24km/h | 7942m | -2.9m/s | -20.5°C | 18.0% | 386.8hPa | 0V | 00:00:00 | 00:00:00 | 00:00:00 | |
| AUTORXJP | 2026-09-06 02:00:20 | 43.76380 | 4.95013 | 139° | 29km/h | 8033m | -2.9m/s | -21.2°C | 23.2% | 382.0hPa | 0V | 00:00:00 | 00:00:00 | 00:00:00 | |
| AUTORXJP | 2026-09-06 01:59:49 | 43.76482 | 4.94862 | 99° | 7km/h | 8123m | -2.8m/s | -22.1°C | 24.4% | 377.4hPa | 0V | 00:00:00 | 00:00:00 | 00:00:00 | |
| AUTORXJP | 2026-09-06 01:59:18 | 43.76566 | 4.94694 | 144° | 26km/h | 8209m | -2.7m/s | -22.9°C | 25.7% | 373.0hPa | 0V | 00:00:00 | 00:00:00 | 00:00:00 | |
| AUTORXJP | 2026-09-06 01:58:47 | 43.76663 | 4.94570 | 146° | 5km/h | 8294m | -2.6m/s | -23.7°C | 26.8% | 368.6hPa | 0V | 00:00:00 | 00:00:00 | 00:00:00 | |
| AUTORXJP | 2026-09-06 01:58:16 | 43.76730 | 4.94423 | 134° | 27km/h | 8376m | -2.7m/s | -24.5°C | 27.9% | 364.5hPa | 0V | 00:00:00 | 00:00:00 | 00:00:00 | |
| AUTORXJP | 2026-09-06 01:57:45 | 43.76832 | 4.94331 | 92° | 11km/h | 8456m | -2.5m/s | -25.2°C | 28.9% | 360.5hPa | 0V | 00:00:00 | 00:00:00 | 00:00:00 | |
| AUTORXJP | 2026-09-06 01:56:43 | 43.77035 | 4.94145 | 143° | 27km/h | 8617m | -2.6m/s | -26.5°C | 27.4% | 352.6hPa | 0V | 00:00:00 | 00:00:00 | 00:00:00 | |
| AUTORXJP | 2026-09-06 01:56:12 | 43.77162 | 4.94062 | 113° | 15km/h | 8697m | -2.6m/s | -27.2°C | 26.7% | 348.6hPa | 0V | 00:00:00 | 00:00:00 | 00:00:00 | |
| AUTORXJP | 2026-09-06 01:55:41 | 43.77314 | 4.93944 | 185° | 20km/h | 8781m | -2.6m/s | -27.8°C | 24.4% | 344.6hPa | 0V | 00:00:00 | 00:00:00 | 00:00:00 | |
| AUTORXJP | 2026-09-06 01:55:10 | 43.77419 | 4.93820 | 115° | 26km/h | 8867m | -2.8m/s | -28.3°C | 24.4% | 340.5hPa | 0V | 00:00:00 | 00:00:00 | 00:00:00 | |
| AUTORXJP | 2026-09-06 01:54:39 | 43.77546 | 4.93663 | 118° | 7km/h | 8957m | -2.8m/s | -29.1°C | 25.4% | 336.2hPa | 0V | 00:00:00 | 00:00:00 | 00:00:00 | |
| AUTORXJP | 2026-09-06 01:54:08 | 43.77640 | 4.93478 | 145° | 26km/h | 9051m | -2.8m/s | -29.9°C | 25.9% | 331.8hPa | 0V | 00:00:00 | 00:00:00 | 00:00:00 | |
| AUTORXJP | 2026-09-06 01:53:36 | 43.77690 | 4.93365 | 76° | 22km/h | 9149m | -3.1m/s | -30.6°C | 23.6% | 327.2hPa | 0V | 00:00:00 | 00:00:00 | 00:00:00 | |
| AUTORXJP | 2026-09-06 01:53:05 | 43.77729 | 4.93236 | 338° | 2km/h | 9249m | -3.2m/s | -31.4°C | 20.9% | 322.7hPa | 0V | 00:00:00 | 00:00:00 | 00:00:00 | |
| AUTORXJP | 2026-09-06 01:52:34 | 43.77725 | 4.93119 | 138° | 18km/h | 9346m | -3.1m/s | -32.2°C | 22.2% | 318.3hPa | 0V | 00:00:00 | 00:00:00 | 00:00:00 | |
| AUTORXJP | 2026-09-06 01:52:03 | 43.77731 | 4.93009 | 123° | 22km/h | 9447m | -3.0m/s | -33.1°C | 23.9% | 313.8hPa | 0V | 00:00:00 | 00:00:00 | 00:00:00 | |
| AUTORXJP | 2026-09-06 01:51:33 | 43.77748 | 4.92923 | 68° | 18km/h | 9545m | -3.3m/s | -34.0°C | 24.8% | 309.4hPa | 0V | 00:00:00 | 00:00:00 | 00:00:00 | |
| AUTORXJP | 2026-09-06 01:51:01 | 43.77792 | 4.92776 | 191° | 0km/h | 9646m | -3.5m/s | -34.7°C | 23.9% | 304.9hPa | 0V | 00:00:00 | 00:00:00 | 00:00:00 | |
| AUTORXJP | 2026-09-06 01:50:30 | 43.77810 | 4.92603 | 133° | 24km/h | 9749m | -3.4m/s | -35.7°C | 25.1% | 300.4hPa | 0V | 00:00:00 | 00:00:00 | 00:00:00 | |
| AUTORXJP | 2026-09-06 01:49:59 | 43.77828 | 4.92446 | 108° | 29km/h | 9854m | -3.2m/s | -36.6°C | 26.3% | 295.9hPa | 0V | 00:00:00 | 00:00:00 | 00:00:00 | |
| AUTORXJP | 2026-09-06 01:49:28 | 43.77848 | 4.92283 | 81° | 29km/h | 9960m | -3.4m/s | -37.6°C | 27.5% | 291.4hPa | 0V | 00:00:00 | 00:00:00 | 00:00:00 | |
| AUTORXJP | 2026-09-06 01:48:57 | 43.77878 | 4.92084 | 54° | 9km/h | 10064m | -3.2m/s | -38.6°C | 27.9% | 287.0hPa | 0V | 00:00:00 | 00:00:00 | 00:00:00 | |
| AUTORXJP | 2026-09-06 01:48:26 | 43.77907 | 4.91858 | 145° | 20km/h | 10166m | -3.1m/s | -39.4°C | 26.8% | 282.8hPa | 0V | 00:00:00 | 00:00:00 | 00:00:00 | |
| AUTORXJP | 2026-09-06 01:47:55 | 43.77945 | 4.91658 | 115° | 35km/h | 10255m | -2.6m/s | -40.1°C | 24.2% | 279.1hPa | 0V | 00:00:00 | 00:00:00 | 00:00:00 | |
| AUTORXJP | 2026-09-06 01:47:23 | 43.77996 | 4.91477 | 66° | 22km/h | 10333m | -2.5m/s | -40.3°C | 21.3% | 275.9hPa | 0V | 00:00:00 | 00:00:00 | 00:00:00 | |
| AUTORXJP | 2026-09-06 01:46:52 | 43.77997 | 4.91282 | 117° | 13km/h | 10420m | -3.5m/s | -40.6°C | 23.3% | 272.5hPa | 0V | 00:00:00 | 00:00:00 | 00:00:00 | |
| AUTORXJP | 2026-09-06 01:46:21 | 43.77925 | 4.91092 | 72° | 35km/h | 10520m | -2.9m/s | -41.7°C | 24.6% | 268.5hPa | 0V | 00:00:00 | 00:00:00 | 00:00:00 | |
| AUTORXJP | 2026-09-06 01:45:50 | 43.77875 | 4.90886 | 26° | 24km/h | 10603m | -2.7m/s | -42.5°C | 26.4% | 265.2hPa | 0V | 00:00:00 | 00:00:00 | 00:00:00 | |
| AUTORXJP | 2026-09-06 01:45:19 | 43.77746 | 4.90651 | 77° | 27km/h | 10700m | -2.8m/s | -43.2°C | 28.9% | 261.4hPa | 0V | 00:00:00 | 00:00:00 | 00:00:00 | |
| AUTORXJP | 2026-09-06 01:44:48 | 43.77610 | 4.90465 | 31° | 38km/h | 10784m | -3.0m/s | -43.9°C | 31.9% | 258.1hPa | 0V | 00:00:00 | 00:00:00 | 00:00:00 | |
| AUTORXJP | 2026-09-06 01:44:17 | 43.77464 | 4.90219 | 16° | 22km/h | 10873m | -2.7m/s | -44.7°C | 34.5% | 254.7hPa | 0V | 00:00:00 | 00:00:00 | 00:00:00 | |
| AUTORXJP | 2026-09-06 01:43:46 | 43.77304 | 4.89975 | 72° | 16km/h | 10963m | -2.9m/s | -45.6°C | 37.2% | 251.3hPa | 0V | 00:00:00 | 00:00:00 | 00:00:00 | |
| AUTORXJP | 2026-09-06 01:43:15 | 43.77144 | 4.89748 | 71° | 37km/h | 11055m | -3.0m/s | -46.5°C | 41.1% | 247.9hPa | 0V | 00:00:00 | 00:00:00 | 00:00:00 | |
| AUTORXJP | 2026-09-06 01:42:44 | 43.77003 | 4.89523 | 57° | 42km/h | 11150m | -3.0m/s | -47.3°C | 44.4% | 244.4hPa | 0V | 00:00:00 | 00:00:00 | 00:00:00 | |
| AUTORXJP | 2026-09-06 01:42:13 | 43.76872 | 4.89299 | 45° | 40km/h | 11246m | -3.0m/s | -48.2°C | 46.9% | 240.8hPa | 0V | 00:00:00 | 00:00:00 | 00:00:00 | |
| AUTORXJP | 2026-09-06 01:41:42 | 43.76761 | 4.89054 | 22° | 24km/h | 11341m | -3.0m/s | -49.1°C | 48.7% | 237.4hPa | 0V | 00:00:00 | 00:00:00 | 00:00:00 | |
| AUTORXJP | 2026-09-06 01:41:11 | 43.76635 | 4.88784 | 83° | 15km/h | 11438m | -2.9m/s | -50.0°C | 50.2% | 233.9hPa | 0V | 00:00:00 | 00:00:00 | 00:00:00 | |
| AUTORXJP | 2026-09-06 01:40:39 | 43.76510 | 4.88523 | 86° | 31km/h | 11534m | -3.1m/s | -50.8°C | 52.9% | 230.5hPa | 0V | 00:00:00 | 00:00:00 | 00:00:00 | |
| AUTORXJP | 2026-09-06 01:40:08 | 43.76387 | 4.88285 | 62° | 42km/h | 11633m | -3.3m/s | -51.7°C | 55.7% | 227.0hPa | 0V | 00:00:00 | 00:00:00 | 00:00:00 | |
| AUTORXJP | 2026-09-06 01:39:37 | 43.76271 | 4.88033 | 50° | 42km/h | 11738m | -3.2m/s | -52.6°C | 56.4% | 223.4hPa | 0V | 00:00:00 | 00:00:00 | 00:00:00 | |
| AUTORXJP | 2026-09-06 01:39:06 | 43.76181 | 4.87755 | 38° | 33km/h | 11841m | -3.4m/s | -53.5°C | 55.2% | 219.8hPa | 0V | 00:00:00 | 00:00:00 | 00:00:00 | |
| AUTORXJP | 2026-09-06 01:38:35 | 43.76098 | 4.87444 | 38° | 18km/h | 11945m | -3.3m/s | -54.4°C | 55.7% | 216.3hPa | 0V | 00:00:00 | 00:00:00 | 00:00:00 | |
| AUTORXJP | 2026-09-06 01:38:04 | 43.76016 | 4.87148 | 80° | 13km/h | 12050m | -3.5m/s | -55.0°C | 55.0% | 212.8hPa | 0V | 00:00:00 | 00:00:00 | 00:00:00 | |
| AUTORXJP | 2026-09-06 01:37:33 | 43.75900 | 4.86876 | 90° | 22km/h | 12157m | -3.3m/s | -55.9°C | 52.2% | 209.3hPa | 0V | 00:00:00 | 00:00:00 | 00:00:00 | |
| AUTORXJP | 2026-09-06 01:37:02 | 43.75754 | 4.86602 | 77° | 38km/h | 12264m | -3.4m/s | -56.9°C | 49.1% | 205.8hPa | 0V | 00:00:00 | 00:00:00 | 00:00:00 | |
| AUTORXJP | 2026-09-06 01:36:31 | 43.75603 | 4.86351 | 56° | 46km/h | 12373m | -3.7m/s | -57.9°C | 45.6% | 202.2hPa | 0V | 00:00:00 | 00:00:00 | 00:00:00 | |
| AUTORXJP | 2026-09-06 01:35:29 | 43.75258 | 4.85775 | 30° | 46km/h | 12591m | -3.6m/s | -59.2°C | 39.5% | 195.3hPa | 0V | 00:00:00 | 00:00:00 | 00:00:00 | |
| AUTORXJP | 2026-09-06 01:34:58 | 43.75062 | 4.85417 | 29° | 24km/h | 12699m | -3.9m/s | -59.7°C | 36.8% | 192.0hPa | 0V | 00:00:00 | 00:00:00 | 00:00:00 | |
| AUTORXJP | 2026-09-06 01:34:26 | 43.74826 | 4.85155 | 36° | 20km/h | 12806m | -3.7m/s | -60.4°C | 34.8% | 188.7hPa | 0V | 00:00:00 | 00:00:00 | 00:00:00 | |
| AUTORXJP | 2026-09-06 01:33:55 | 43.74549 | 4.84970 | 36° | 26km/h | 12916m | -3.5m/s | -61.0°C | 33.5% | 185.4hPa | 0V | 00:00:00 | 00:00:00 | 00:00:00 | |
| AUTORXJP | 2026-09-06 01:33:25 | 43.74211 | 4.84798 | 47° | 44km/h | 13034m | -3.6m/s | -61.9°C | 32.7% | 181.9hPa | 0V | 00:00:00 | 00:00:00 | 00:00:00 | |
| AUTORXJP | 2026-09-06 01:32:48 | 43.73869 | 4.84492 | 56° | 31km/h | 13166m | -3.6m/s | -62.4°C | 32.0% | 178.1hPa | 0V | 00:00:00 | 00:00:00 | 00:00:00 | |
| AUTORXJP | 2026-09-06 01:32:17 | 43.73608 | 4.84143 | 67° | 31km/h | 13282m | -3.9m/s | -63.2°C | 30.0% | 174.7hPa | 0V | 00:00:00 | 00:00:00 | 00:00:00 | |
| AUTORXJP | 2026-09-06 01:31:46 | 43.73364 | 4.83806 | 66° | 29km/h | 13399m | -3.8m/s | -64.2°C | 26.7% | 171.4hPa | 0V | 00:00:00 | 00:00:00 | 00:00:00 | |
| AUTORXJP | 2026-09-06 01:31:15 | 43.73130 | 4.83476 | 76° | 42km/h | 13517m | -3.9m/s | -65.3°C | 23.0% | 168.1hPa | 0V | 00:00:00 | 00:00:00 | 00:00:00 | |
| AUTORXJP | 2026-09-06 01:30:44 | 43.72953 | 4.83109 | 83° | 44km/h | 13637m | -4.0m/s | -66.2°C | 18.9% | 164.8hPa | 0V | 00:00:00 | 00:00:00 | 00:00:00 | |
| AUTORXJP | 2026-09-06 01:30:13 | 43.72810 | 4.82773 | 87° | 35km/h | 13758m | -3.9m/s | -67.2°C | 14.6% | 161.6hPa | 0V | 00:00:00 | 00:00:00 | 00:00:00 | |
| AUTORXJP | 2026-09-06 01:29:42 | 43.72680 | 4.82497 | 96° | 22km/h | 13878m | -3.9m/s | -67.8°C | 10.9% | 158.3hPa | 0V | 00:00:00 | 00:00:00 | 00:00:00 | |
| AUTORXJP | 2026-09-06 01:29:11 | 43.72549 | 4.82363 | 76° | 20km/h | 14001m | -3.7m/s | -66.8°C | 8.6% | 155.1hPa | 0V | 00:00:00 | 00:00:00 | 00:00:00 | |
| AUTORXJP | 2026-09-06 01:28:40 | 43.72364 | 4.82306 | 56° | 22km/h | 14121m | -4.1m/s | -65.4°C | 8.0% | 152.1hPa | 0V | 00:00:00 | 00:00:00 | 00:00:00 | |
| AUTORXJP | 2026-09-06 01:28:08 | 43.72163 | 4.82247 | 55° | 33km/h | 14243m | -4.0m/s | -62.0°C | 8.0% | 149.1hPa | 0V | 00:00:00 | 00:00:00 | 00:00:00 | |
| AUTORXJP | 2026-09-06 01:27:37 | 43.71957 | 4.82030 | 69° | 49km/h | 14366m | -4.5m/s | -61.9°C | 7.9% | 146.1hPa | 0V | 00:00:00 | 00:00:00 | 00:00:00 | |
| AUTORXJP | 2026-09-06 01:27:06 | 43.71855 | 4.81655 | 92° | 55km/h | 14494m | -4.2m/s | -62.3°C | 7.7% | 143.1hPa | 0V | 00:00:00 | 00:00:00 | 00:00:00 | |
| AUTORXJP | 2026-09-06 01:26:35 | 43.71866 | 4.81231 | 122° | 47km/h | 14630m | -4.2m/s | -63.2°C | 7.1% | 140.0hPa | 0V | 00:00:00 | 00:00:00 | 00:00:00 | |
| AUTORXJP | 2026-09-06 01:26:04 | 43.71946 | 4.80865 | 144° | 38km/h | 14758m | -4.2m/s | -64.0°C | 6.7% | 137.1hPa | 0V | 00:00:00 | 00:00:00 | 00:00:00 | |
| AUTORXJP | 2026-09-06 01:25:33 | 43.72007 | 4.80584 | 161° | 18km/h | 14887m | -4.0m/s | -63.8°C | 6.1% | 134.2hPa | 0V | 00:00:00 | 00:00:00 | 00:00:00 | |
| AUTORXJP | 2026-09-06 01:25:02 | 43.72013 | 4.80322 | 50° | 7km/h | 15015m | -4.2m/s | -64.0°C | 5.5% | 131.4hPa | 0V | 00:00:00 | 00:00:00 | 00:00:00 | |
| AUTORXJP | 2026-09-06 01:24:31 | 43.71953 | 4.79982 | 39° | 24km/h | 15148m | -4.3m/s | -63.7°C | 5.0% | 128.6hPa | 0V | 00:00:00 | 00:00:00 | 00:00:00 | |
| AUTORXJP | 2026-09-06 01:24:00 | 43.71921 | 4.79618 | 50° | 37km/h | 15284m | -4.2m/s | -63.8°C | 4.6% | 125.8hPa | 0V | 00:00:00 | 00:00:00 | 00:00:00 | |
| AUTORXJP | 2026-09-06 01:23:29 | 43.71933 | 4.79298 | 76° | 47km/h | 15423m | -4.4m/s | -62.7°C | 4.3% | 123.0hPa | 0V | 00:00:00 | 00:00:00 | 00:00:00 | |
| AUTORXJP | 2026-09-06 01:22:58 | 43.71968 | 4.78993 | 99° | 51km/h | 15567m | -4.9m/s | -63.3°C | 3.9% | 120.1hPa | 0V | 00:00:00 | 00:00:00 | 00:00:00 | |
| AUTORXJP | 2026-09-06 01:22:27 | 43.72023 | 4.78711 | 127° | 42km/h | 15714m | -5.1m/s | -63.9°C | 3.5% | 117.2hPa | 0V | 00:00:00 | 00:00:00 | 00:00:00 | |
| AUTORXJP | 2026-09-06 01:21:55 | 43.72111 | 4.78466 | 164° | 35km/h | 15862m | -4.9m/s | -63.3°C | 3.1% | 114.4hPa | 0V | 00:00:00 | 00:00:00 | 00:00:00 | |
| AUTORXJP | 2026-09-06 01:21:24 | 43.72194 | 4.78224 | 167° | 18km/h | 16012m | -4.8m/s | -63.2°C | 2.8% | 111.7hPa | 0V | 00:00:00 | 00:00:00 | 00:00:00 | |
| AUTORXJP | 2026-09-06 01:20:53 | 43.72239 | 4.77900 | 126° | 5km/h | 16166m | -5.0m/s | -62.9°C | 2.5% | 108.9hPa | 0V | 00:00:00 | 00:00:00 | 00:00:00 | |
| AUTORXJP | 2026-09-06 01:20:22 | 43.72316 | 4.77617 | 71° | 29km/h | 16324m | -4.7m/s | -62.6°C | 2.3% | 106.1hPa | 0V | 00:00:00 | 00:00:00 | 00:00:00 | |
| AUTORXJP | 2026-09-06 01:19:51 | 43.72484 | 4.77350 | 101° | 46km/h | 16480m | -4.8m/s | -62.2°C | 2.0% | 103.5hPa | 0V | 00:00:00 | 00:00:00 | 00:00:00 | |
| AUTORXJP | 2026-09-06 01:19:20 | 43.72615 | 4.77106 | 129° | 49km/h | 16634m | -3.5m/s | -62.9°C | 1.6% | 100.9hPa | 0V | 00:00:00 | 00:00:00 | 00:00:00 | |
| AUTORXJP | 2026-09-06 01:18:49 | 43.72679 | 4.76911 | 206° | 16km/h | 16788m | -4.3m/s | -63.3°C | 1.1% | 98.4hPa | 0V | 00:00:00 | 00:00:00 | 00:00:00 | |
| AUTORXJP | 2026-09-06 01:18:18 | 43.72669 | 4.76755 | 25° | 29km/h | 16946m | -5.0m/s | -63.1°C | 0.7% | 95.9hPa | 0V | 00:00:00 | 00:00:00 | 00:00:00 | |
| AUTORXJP | 2026-09-06 01:17:47 | 43.72638 | 4.76470 | 75° | 55km/h | 17108m | -4.9m/s | -63.1°C | 0.3% | 93.4hPa | 0V | 00:00:00 | 00:00:00 | 00:00:00 | |
| AUTORXJP | 2026-09-06 01:17:16 | 43.72660 | 4.76093 | 124° | 55km/h | 17275m | -5.7m/s | -62.5°C | 0.0% | 90.8hPa | 0V | 00:00:00 | 00:00:00 | 00:00:00 | |
| AUTORXJP | 2026-09-06 01:16:45 | 43.72753 | 4.75763 | 160° | 42km/h | 17445m | -5.8m/s | -62.7°C | 0.0% | 88.3hPa | 0V | 00:00:00 | 00:00:00 | 00:00:00 | |
| AUTORXJP | 2026-09-06 01:16:14 | 43.72888 | 4.75457 | 20° | 4km/h | 17623m | -4.3m/s | -62.2°C | 0.0% | 85.8hPa | 0V | 00:00:00 | 00:00:00 | 00:00:00 | |
| AUTORXJP | 2026-09-06 01:15:43 | 43.72991 | 4.75237 | 83° | 40km/h | 17795m | -3.2m/s | -61.5°C | 0.0% | 83.5hPa | 0V | 00:00:00 | 00:00:00 | 00:00:00 | |
| AUTORXJP | 2026-09-06 01:15:12 | 43.73044 | 4.75104 | 141° | 33km/h | 17976m | -6.0m/s | -60.8°C | 0.0% | 81.0hPa | 0V | 00:00:00 | 00:00:00 | 00:00:00 | |
| AUTORXJP | 2026-09-06 01:14:41 | 43.73041 | 4.74984 | 230° | 20km/h | 18159m | -5.4m/s | -61.1°C | 0.0% | 78.7hPa | 0V | 00:00:00 | 00:00:00 | 00:00:00 | |
| AUTORXJP | 2026-09-06 01:14:09 | 43.73118 | 4.74839 | 40° | 27km/h | 18349m | -6.2m/s | -60.8°C | 0.0% | 76.2hPa | 0V | 00:00:00 | 00:00:00 | 00:00:00 | |
| AUTORXJP | 2026-09-06 01:13:38 | 43.73176 | 4.74627 | 125° | 53km/h | 18543m | -7.2m/s | -60.6°C | 0.0% | 73.9hPa | 0V | 00:00:00 | 00:00:00 | 00:00:00 | |
| AUTORXJP | 2026-09-06 01:13:07 | 43.73264 | 4.74329 | 197° | 24km/h | 18741m | -5.1m/s | -60.4°C | 0.0% | 71.6hPa | 0V | 00:00:00 | 00:00:00 | 00:00:00 | |
| AUTORXJP | 2026-09-06 01:12:36 | 43.73361 | 4.74023 | 93° | 60km/h | 18948m | -6.3m/s | -60.1°C | 0.0% | 69.2hPa | 0V | 00:00:00 | 00:00:00 | 00:00:00 | |
| AUTORXJP | 2026-09-06 01:12:05 | 43.73531 | 4.73648 | 160° | 53km/h | 19152m | -5.6m/s | -59.4°C | 0.0% | 67.0hPa | 0V | 00:00:00 | 00:00:00 | 00:00:00 | |
| AUTORXJP | 2026-09-06 01:11:34 | 43.73678 | 4.73492 | 334° | 16km/h | 19361m | -4.5m/s | -58.5°C | 0.0% | 64.7hPa | 0V | 00:00:00 | 00:00:00 | 00:00:00 | |
| AUTORXJP | 2026-09-06 01:11:03 | 43.73762 | 4.73467 | 123° | 42km/h | 19570m | -5.6m/s | -58.8°C | 0.0% | 62.6hPa | 0V | 00:00:00 | 00:00:00 | 00:00:00 | |
| AUTORXJP | 2026-09-06 01:10:32 | 43.73830 | 4.73405 | 250° | 31km/h | 19780m | -7.5m/s | -59.4°C | 0.0% | 60.5hPa | 0V | 00:00:00 | 00:00:00 | 00:00:00 | |
| AUTORXJP | 2026-09-06 01:10:01 | 43.73860 | 4.73316 | 53° | 44km/h | 19992m | -6.2m/s | -58.5°C | 0.0% | 58.5hPa | 0V | 00:00:00 | 00:00:00 | 00:00:00 | |
| AUTORXJP | 2026-09-06 01:09:31 | 43.73830 | 4.73233 | 221° | 31km/h | 20216m | -5.9m/s | -57.2°C | 0.0% | 56.4hPa | 0V | 00:00:00 | 00:00:00 | 00:00:00 | |
| AUTORXJP | 2026-09-06 01:08:59 | 43.73803 | 4.73111 | 53° | 51km/h | 20449m | -7.1m/s | -57.5°C | 0.0% | 54.3hPa | 0V | 00:00:00 | 00:00:00 | 00:00:00 | |
| AUTORXJP | 2026-09-06 01:08:28 | 43.73941 | 4.72893 | 189° | 62km/h | 20690m | -6.5m/s | -58.1°C | 0.0% | 52.3hPa | 0V | 00:00:00 | 00:00:00 | 00:00:00 | |
| AUTORXJP | 2026-09-06 01:07:57 | 43.74135 | 4.72844 | 86° | 40km/h | 20933m | -7.3m/s | -57.5°C | 0.0% | 50.2hPa | 0V | 00:00:00 | 00:00:00 | 00:00:00 | |
| AUTORXJP | 2026-09-06 01:07:26 | 43.74289 | 4.72858 | 238° | 53km/h | 21188m | -8.4m/s | -57.5°C | 0.0% | 48.2hPa | 0V | 00:00:00 | 00:00:00 | 00:00:00 | |
| AUTORXJP | 2026-09-06 01:06:54 | 43.74232 | 4.72837 | 90° | 55km/h | 21449m | -7.9m/s | -57.2°C | 0.0% | 46.2hPa | 0V | 00:00:00 | 00:00:00 | 00:00:00 | |
| AUTORXJP | 2026-09-06 01:06:23 | 43.74363 | 4.72805 | 283° | 44km/h | 21716m | -9.2m/s | -57.6°C | 0.0% | 44.3hPa | 0V | 00:00:00 | 00:00:00 | 00:00:00 | |
| AUTORXJP | 2026-09-06 01:05:52 | 43.74421 | 4.72815 | 162° | 53km/h | 21993m | -8.2m/s | -56.6°C | 0.0% | 42.4hPa | 0V | 00:00:00 | 00:00:00 | 00:00:00 | |
| AUTORXJP | 2026-09-06 01:05:21 | 43.74470 | 4.72963 | 16° | 42km/h | 22273m | -10.4m/s | -55.0°C | 0.0% | 40.5hPa | 0V | 00:00:00 | 00:00:00 | 00:00:00 | |
| AUTORXJP | 2026-09-06 01:04:50 | 43.74502 | 4.73118 | 4° | 55km/h | 22597m | -8.8m/s | -55.5°C | 0.0% | 38.4hPa | 0V | 00:00:00 | 00:00:00 | 00:00:00 | |
| AUTORXJP | 2026-09-06 01:04:19 | 43.74530 | 4.73084 | 193° | 53km/h | 22879m | -9.4m/s | -55.6°C | 0.0% | 36.8hPa | 0V | 00:00:00 | 00:00:00 | 00:00:00 | |
| AUTORXJP | 2026-09-06 01:03:48 | 43.74501 | 4.73073 | 104° | 57km/h | 23191m | -10.5m/s | -54.7°C | 0.0% | 34.9hPa | 0V | 00:00:00 | 00:00:00 | 00:00:00 | |
| AUTORXJP | 2026-09-06 01:03:17 | 43.74574 | 4.73192 | 11° | 51km/h | 23514m | -10.8m/s | -53.8°C | 0.0% | 33.2hPa | 0V | 00:00:00 | 00:00:00 | 00:00:00 | |
| AUTORXJP | 2026-09-06 01:02:46 | 43.74651 | 4.73260 | 291° | 68km/h | 23853m | -10.2m/s | -53.2°C | 0.0% | 31.4hPa | 0V | 00:00:00 | 00:00:00 | 00:00:00 | |
| AUTORXJP | 2026-09-06 01:02:15 | 43.74699 | 4.73304 | 242° | 68km/h | 24202m | -10.3m/s | -52.7°C | 0.0% | 29.7hPa | 0V | 00:00:00 | 00:00:00 | 00:00:00 | |
| AUTORXJP | 2026-09-06 01:01:44 | 43.74710 | 4.73444 | 252° | 73km/h | 24586m | -11.0m/s | -52.2°C | 0.0% | 28.0hPa | 0V | 00:00:00 | 00:00:00 | 00:00:00 | |
| AUTORXJP | 2026-09-06 01:01:13 | 43.74619 | 4.73570 | 201° | 68km/h | 24962m | -11.2m/s | -51.8°C | 0.0% | 26.3hPa | 0V | 00:00:00 | 00:00:00 | 00:00:00 | |
| AUTORXJP | 2026-09-06 01:00:42 | 43.74489 | 4.73753 | 208° | 46km/h | 25366m | -11.3m/s | -52.0°C | 0.0% | 24.7hPa | 0V | 00:00:00 | 00:00:00 | 00:00:00 | |
| AUTORXJP | 2026-09-06 01:00:11 | 43.74402 | 4.73796 | 285° | 69km/h | 25817m | -13.2m/s | -49.2°C | 0.0% | 23.0hPa | 0V | 00:00:00 | 00:00:00 | 00:00:00 | |
| AUTORXJP | 2026-09-06 00:59:39 | 43.74398 | 4.73761 | 236° | 73km/h | 26230m | -13.2m/s | -48.6°C | 0.0% | 21.5hPa | 0V | 00:00:00 | 00:00:00 | 00:00:00 | |
| AUTORXJP | 2026-09-06 00:59:09 | 43.74330 | 4.73861 | 300° | 80km/h | 26693m | -14.1m/s | -47.6°C | 0.0% | 20.0hPa | 0V | 00:00:00 | 00:00:00 | 00:00:00 | |
| AUTORXJP | 2026-09-06 00:58:37 | 43.74221 | 4.73794 | 112° | 84km/h | 27228m | -16.1m/s | -46.5°C | 0.0% | 18.4hPa | 0V | 00:00:00 | 00:00:00 | 00:00:00 | |
| AUTORXJP | 2026-09-06 00:58:06 | 43.74103 | 4.73673 | 156° | 68km/h | 27703m | -16.5m/s | -45.6°C | 0.0% | 17.0hPa | 0V | 00:00:00 | 00:00:00 | 00:00:00 | |
| AUTORXJP | 2026-09-06 00:57:35 | 43.74056 | 4.73598 | 292° | 66km/h | 28225m | -16.4m/s | -47.3°C | 0.0% | 15.7hPa | 0V | 00:00:00 | 00:00:00 | 00:00:00 | |
| AUTORXJP | 2026-09-06 00:57:04 | 43.74041 | 4.73378 | 105° | 53km/h | 28656m | -13.2m/s | -47.0°C | 0.0% | 14.6hPa | 0V | 00:00:00 | 00:00:00 | 00:00:00 | |
| AUTORXJP | 2026-09-06 00:56:02 | 43.74115 | 4.73089 | 90° | 7km/h | 29203m | 5.3m/s | -48.2°C | 0.0% | 13.4hPa | 0V | 00:00:00 | 00:00:00 | 00:00:00 | |
| AUTORXJP | 2026-09-06 00:55:31 | 43.74149 | 4.72943 | 60° | 27km/h | 29024m | 3.7m/s | -48.1°C | 0.0% | 13.8hPa | 0V | 00:00:00 | 00:00:00 | 00:00:00 | |
| AUTORXJP | 2026-09-06 00:55:00 | 43.74120 | 4.72808 | 39° | 7km/h | 28850m | 6.2m/s | -47.3°C | 0.0% | 14.2hPa | 0V | 00:00:00 | 00:00:00 | 00:00:00 | |
| AUTORXJP | 2026-09-06 00:54:30 | 43.74009 | 4.72669 | 23° | 22km/h | 28678m | 6.6m/s | -46.9°C | 0.0% | 14.6hPa | 0V | 00:00:00 | 00:00:00 | 00:00:00 | |
| AUTORXJP | 2026-09-06 00:53:58 | 43.73920 | 4.72547 | 96° | 11km/h | 28506m | 6.6m/s | -47.0°C | 0.0% | 15.0hPa | 0V | 00:00:00 | 00:00:00 | 00:00:00 | |
| AUTORXJP | 2026-09-06 00:53:27 | 43.73945 | 4.72485 | 131° | 5km/h | 28334m | 5.0m/s | -47.2°C | 0.0% | 15.5hPa | 0V | 00:00:00 | 00:00:00 | 00:00:00 | |
| AUTORXJP | 2026-09-06 00:52:56 | 43.73967 | 4.72370 | 61° | 18km/h | 28160m | 6.3m/s | -47.3°C | 0.0% | 15.9hPa | 0V | 00:00:00 | 00:00:00 | 00:00:00 | |
| AUTORXJP | 2026-09-06 00:52:25 | 43.73904 | 4.72220 | 323° | 4km/h | 27983m | 4.3m/s | -46.6°C | 0.0% | 16.4hPa | 0V | 00:00:00 | 00:00:00 | 00:00:00 | |
| AUTORXJP | 2026-09-06 00:51:53 | 43.73823 | 4.72114 | 41° | 16km/h | 27800m | 3.9m/s | -45.5°C | 0.0% | 16.8hPa | 0V | 00:00:00 | 00:00:00 | 00:00:00 | |
| AUTORXJP | 2026-09-06 00:51:22 | 43.73712 | 4.72054 | 30° | 27km/h | 27623m | 6.9m/s | -46.2°C | 0.0% | 17.3hPa | 0V | 00:00:00 | 00:00:00 | 00:00:00 | |
| AUTORXJP | 2026-09-06 00:50:51 | 43.73553 | 4.71948 | 357° | 18km/h | 27444m | 7.1m/s | -46.3°C | 0.0% | 17.8hPa | 0V | 00:00:00 | 00:00:00 | 00:00:00 | |
| AUTORXJP | 2026-09-06 00:50:20 | 43.73433 | 4.71825 | 38° | 13km/h | 27269m | 6.8m/s | -46.6°C | 0.0% | 18.4hPa | 0V | 00:00:00 | 00:00:00 | 00:00:00 | |
| AUTORXJP | 2026-09-06 00:49:49 | 43.73345 | 4.71758 | 322° | 11km/h | 27097m | 5.8m/s | -46.9°C | 0.0% | 18.9hPa | 0V | 00:00:00 | 00:00:00 | 00:00:00 | |
| AUTORXJP | 2026-09-06 00:49:18 | 43.73290 | 4.71732 | 23° | 16km/h | 26928m | 5.3m/s | -47.2°C | 0.0% | 19.4hPa | 0V | 00:00:00 | 00:00:00 | 00:00:00 | |
| AUTORXJP | 2026-09-06 00:48:47 | 43.73203 | 4.71715 | 340° | 15km/h | 26764m | 4.8m/s | -47.6°C | 0.0% | 19.9hPa | 0V | 00:00:00 | 00:00:00 | 00:00:00 | |
| AUTORXJP | 2026-09-06 00:48:16 | 43.73097 | 4.71743 | 2° | 16km/h | 26601m | 5.7m/s | -48.5°C | 0.0% | 20.4hPa | 0V | 00:00:00 | 00:00:00 | 00:00:00 | |
| AUTORXJP | 2026-09-06 00:47:45 | 43.72957 | 4.71842 | 297° | 9km/h | 26439m | 5.1m/s | -49.3°C | 0.0% | 20.9hPa | 0V | 00:00:00 | 00:00:00 | 00:00:00 | |
| AUTORXJP | 2026-09-06 00:47:14 | 43.72919 | 4.71896 | 49° | 13km/h | 26270m | 6.5m/s | -49.2°C | 0.0% | 21.5hPa | 0V | 00:00:00 | 00:00:00 | 00:00:00 | |
| AUTORXJP | 2026-09-06 00:46:43 | 43.72885 | 4.71841 | 324° | 13km/h | 26095m | 4.7m/s | -49.2°C | 0.0% | 22.1hPa | 0V | 00:00:00 | 00:00:00 | 00:00:00 | |
| DB0UT-7 | 2026-09-06 00:46:42 | 43.72885 | 4.71841 | 325° | 11km/h | 26095m | 4.6m/s | 0°C | 0% | 0hPa | 0V | 00:00:00 | 00:00:00 | 00:00:00 | |
| DB0UT-7 | 2026-09-06 00:46:12 | 43.72832 | 4.71866 | 290° | 11km/h | 25918m | 5.3m/s | 0°C | 0% | 0hPa | 0V | 00:00:00 | 00:00:00 | 00:00:00 | |
| AUTORXJP | 2026-09-06 00:46:11 | 43.72833 | 4.71867 | 256° | 7km/h | 25912m | 7.7m/s | -49.5°C | 0.0% | 22.8hPa | 0V | 00:00:00 | 00:00:00 | 00:00:00 | |
| AUTORXJP | 2026-09-06 00:45:40 | 43.72747 | 4.71867 | 347° | 9km/h | 25734m | 7.8m/s | -49.5°C | 0.0% | 23.4hPa | 0V | 00:00:00 | 00:00:00 | 00:00:00 | |
| AUTORXJP | 2026-09-06 00:45:09 | 43.72647 | 4.71854 | 67° | 5km/h | 25557m | 6.3m/s | -51.5°C | 0.0% | 24.1hPa | 0V | 00:00:00 | 00:00:00 | 00:00:00 | |
| DB0UT-7 | 2026-09-06 00:44:59 | 43.72628 | 4.71839 | 6° | 20km/h | 25513m | 4.3m/s | 0°C | 0% | 0hPa | 0V | 00:00:00 | 00:00:00 | 00:00:00 | |
| AUTORXJP | 2026-09-06 00:44:38 | 43.72508 | 4.71901 | 339° | 27km/h | 25397m | 4.5m/s | -52.7°C | 0.0% | 24.7hPa | 0V | 00:00:00 | 00:00:00 | 00:00:00 | |
| AUTORXJP | 2026-09-06 00:44:07 | 43.72330 | 4.72107 | 322° | 24km/h | 25237m | 4.3m/s | -52.6°C | 0.0% | 25.4hPa | 0V | 00:00:00 | 00:00:00 | 00:00:00 | |
| DB0UT-7 | 2026-09-06 00:43:20 | 43.72234 | 4.72460 | 274° | 18km/h | 24999m | 5.8m/s | 0°C | 0% | 0hPa | 0V | 00:00:00 | 00:00:00 | 00:00:00 | |
| AUTORXJP | 2026-09-06 00:43:05 | 43.72211 | 4.72551 | 282° | 7km/h | 24909m | 5.9m/s | -52.3°C | 0.0% | 26.7hPa | 0V | 00:00:00 | 00:00:00 | 00:00:00 | |
| DB0UT-7 | 2026-09-06 00:42:50 | 43.72192 | 4.72629 | 286° | 15km/h | 24833m | 5.2m/s | 0°C | 0% | 0hPa | 0V | 00:00:00 | 00:00:00 | 00:00:00 | |
| AUTORXJP | 2026-09-06 00:42:34 | 43.72167 | 4.72706 | 290° | 15km/h | 24739m | 6.3m/s | -51.9°C | 0.0% | 27.5hPa | 0V | 00:00:00 | 00:00:00 | 00:00:00 | |
| AUTORXJP | 2026-09-06 00:42:03 | 43.72099 | 4.72903 | 266° | 9km/h | 24566m | 5.2m/s | -52.3°C | 0.0% | 28.2hPa | 0V | 00:00:00 | 00:00:00 | 00:00:00 | |
| DB0UT-7 | 2026-09-06 00:41:39 | 43.72086 | 4.73034 | 269° | 18km/h | 24433m | 5.4m/s | 0°C | 0% | 0hPa | 0V | 00:00:00 | 00:00:00 | 00:00:00 | |
| AUTORXJP | 2026-09-06 00:41:32 | 43.72094 | 4.73090 | 245° | 15km/h | 24387m | 4.7m/s | -52.2°C | 0.0% | 29.1hPa | 0V | 00:00:00 | 00:00:00 | 00:00:00 | |
| DB0UT-7 | 2026-09-06 00:41:06 | 43.72139 | 4.73208 | 215° | 24km/h | 24247m | 5.1m/s | 0°C | 0% | 0hPa | 0V | 00:00:00 | 00:00:00 | 00:00:00 | |
| AUTORXJP | 2026-09-06 00:41:01 | 43.72166 | 4.73231 | 173° | 11km/h | 24213m | 6.0m/s | -52.2°C | 0.0% | 29.9hPa | 0V | 00:00:00 | 00:00:00 | 00:00:00 | |
| AUTORXJP | 2026-09-06 00:40:30 | 43.72241 | 4.73283 | 263° | 11km/h | 24044m | 5.3m/s | -53.0°C | 0.0% | 30.7hPa | 0V | 00:00:00 | 00:00:00 | 00:00:00 | |
| AUTORXJP | 2026-09-06 00:39:58 | 43.72317 | 4.73331 | 220° | 15km/h | 23880m | 4.6m/s | -53.0°C | 0.0% | 31.5hPa | 0V | 00:00:00 | 00:00:00 | 00:00:00 | |
| AUTORXJP | 2026-09-06 00:39:28 | 43.72420 | 4.73403 | 155° | 4km/h | 23719m | 6.2m/s | -53.2°C | 0.0% | 32.3hPa | 0V | 00:00:00 | 00:00:00 | 00:00:00 | |
| AUTORXJP | 2026-09-06 00:38:56 | 43.72480 | 4.73461 | 166° | 7km/h | 23553m | 6.0m/s | -53.9°C | 0.0% | 33.2hPa | 0V | 00:00:00 | 00:00:00 | 00:00:00 | |
| AUTORXJP | 2026-09-06 00:38:26 | 43.72536 | 4.73527 | 233° | 15km/h | 23398m | 4.1m/s | -54.6°C | 0.0% | 34.0hPa | 0V | 00:00:00 | 00:00:00 | 00:00:00 | |
| AUTORXJP | 2026-09-06 00:37:54 | 43.72637 | 4.73594 | 182° | 11km/h | 23229m | 5.9m/s | -55.0°C | 0.0% | 35.0hPa | 0V | 00:00:00 | 00:00:00 | 00:00:00 | |
| AUTORXJP | 2026-09-06 00:37:23 | 43.72695 | 4.73576 | 111° | 7km/h | 23068m | 6.2m/s | -55.1°C | 0.0% | 35.9hPa | 0V | 00:00:00 | 00:00:00 | 00:00:00 | |
| AUTORXJP | 2026-09-06 00:36:52 | 43.72671 | 4.73461 | 79° | 5km/h | 22904m | 6.3m/s | -55.8°C | 0.0% | 36.9hPa | 0V | 00:00:00 | 00:00:00 | 00:00:00 | |
| AUTORXJP | 2026-09-06 00:36:21 | 43.72694 | 4.73426 | 200° | 5km/h | 22736m | 6.1m/s | -55.3°C | 0.0% | 37.8hPa | 0V | 00:00:00 | 00:00:00 | 00:00:00 | |
| AUTORXJP | 2026-09-06 00:35:50 | 43.72741 | 4.73474 | 233° | 7km/h | 22573m | 5.6m/s | -55.6°C | 0.0% | 38.9hPa | 0V | 00:00:00 | 00:00:00 | 00:00:00 | |
| AUTORXJP | 2026-09-06 00:35:19 | 43.72792 | 4.73619 | 236° | 15km/h | 22408m | 4.9m/s | -55.9°C | 0.0% | 39.9hPa | 0V | 00:00:00 | 00:00:00 | 00:00:00 | |
| AUTORXJP | 2026-09-06 00:34:48 | 43.72841 | 4.73779 | 218° | 22km/h | 22248m | 6.0m/s | -56.1°C | 0.0% | 40.9hPa | 0V | 00:00:00 | 00:00:00 | 00:00:00 | |
| AUTORXJP | 2026-09-06 00:34:17 | 43.72891 | 4.73880 | 293° | 15km/h | 22095m | 5.6m/s | -57.0°C | 0.0% | 41.9hPa | 0V | 00:00:00 | 00:00:00 | 00:00:00 | |
| AUTORXJP | 2026-09-06 00:33:46 | 43.72906 | 4.74010 | 264° | 20km/h | 21938m | 5.6m/s | -56.6°C | 0.0% | 43.0hPa | 0V | 00:00:00 | 00:00:00 | 00:00:00 | |
| AUTORXJP | 2026-09-06 00:33:15 | 43.73016 | 4.74156 | 209° | 20km/h | 21779m | 5.8m/s | -56.9°C | 0.0% | 44.1hPa | 0V | 00:00:00 | 00:00:00 | 00:00:00 | |
| AUTORXJP | 2026-09-06 00:32:43 | 43.73102 | 4.74196 | 190° | 5km/h | 21616m | 4.1m/s | -57.0°C | 0.1% | 45.3hPa | 0V | 00:00:00 | 00:00:00 | 00:00:00 | |
| AUTORXJP | 2026-09-06 00:32:12 | 43.73173 | 4.74189 | 158° | 15km/h | 21459m | 4.0m/s | -56.6°C | 0.1% | 46.5hPa | 0V | 00:00:00 | 00:00:00 | 00:00:00 | |
| AUTORXJP | 2026-09-06 00:31:41 | 43.73194 | 4.74159 | 299° | 2km/h | 21296m | 4.8m/s | -57.1°C | 0.2% | 47.7hPa | 0V | 00:00:00 | 00:00:00 | 00:00:00 | |
| AUTORXJP | 2026-09-06 00:31:10 | 43.73153 | 4.74187 | 194° | 4km/h | 21138m | 4.8m/s | -57.1°C | 0.3% | 48.9hPa | 0V | 00:00:00 | 00:00:00 | 00:00:00 | |
| AUTORXJP | 2026-09-06 00:30:39 | 43.73210 | 4.74277 | 226° | 15km/h | 20986m | 5.3m/s | -57.5°C | 0.3% | 50.1hPa | 0V | 00:00:00 | 00:00:00 | 00:00:00 | |
| AUTORXJP | 2026-09-06 00:30:08 | 43.73366 | 4.74253 | 145° | 31km/h | 20839m | 3.8m/s | -58.0°C | 0.4% | 51.3hPa | 0V | 00:00:00 | 00:00:00 | 00:00:00 | |
| AUTORXJP | 2026-09-06 00:29:37 | 43.73565 | 4.74096 | 130° | 27km/h | 20690m | 6.5m/s | -58.3°C | 0.5% | 52.5hPa | 0V | 00:00:00 | 00:00:00 | 00:00:00 | |
| AUTORXJP | 2026-09-06 00:29:06 | 43.73709 | 4.73872 | 122° | 20km/h | 20542m | 5.9m/s | -57.6°C | 0.6% | 53.8hPa | 0V | 00:00:00 | 00:00:00 | 00:00:00 | |
| AUTORXJP | 2026-09-06 00:28:35 | 43.73766 | 4.73622 | 85° | 26km/h | 20391m | 3.9m/s | -57.8°C | 0.7% | 55.1hPa | 0V | 00:00:00 | 00:00:00 | 00:00:00 | |
| AUTORXJP | 2026-09-06 00:28:04 | 43.73718 | 4.73453 | 51° | 20km/h | 20237m | 4.9m/s | -57.2°C | 0.8% | 56.5hPa | 0V | 00:00:00 | 00:00:00 | 00:00:00 | |
| AUTORXJP | 2026-09-06 00:27:33 | 43.73687 | 4.73391 | 64° | 9km/h | 20085m | 3.8m/s | -58.4°C | 0.8% | 57.9hPa | 0V | 00:00:00 | 00:00:00 | 00:00:00 | |
| AUTORXJP | 2026-09-06 00:27:02 | 43.73715 | 4.73314 | 136° | 16km/h | 19929m | 5.5m/s | -58.9°C | 1.0% | 59.4hPa | 0V | 00:00:00 | 00:00:00 | 00:00:00 | |
| AUTORXJP | 2026-09-06 00:26:30 | 43.73824 | 4.73112 | 103° | 11km/h | 19770m | 4.9m/s | -59.2°C | 1.1% | 60.9hPa | 0V | 00:00:00 | 00:00:00 | 00:00:00 | |
| AUTORXJP | 2026-09-06 00:26:00 | 43.73879 | 4.72964 | 147° | 4km/h | 19616m | 4.6m/s | -58.6°C | 1.4% | 62.4hPa | 0V | 00:00:00 | 00:00:00 | 00:00:00 | |
| AUTORXJP | 2026-09-06 00:25:32 | 43.73979 | 4.72894 | 175° | 22km/h | 19457m | 4.3m/s | -58.7°C | 1.6% | 64.0hPa | 0V | 00:00:00 | 00:00:00 | 00:00:00 | |
| AUTORXJP | 2026-09-06 00:24:57 | 43.74119 | 4.72763 | 129° | 26km/h | 19305m | 4.3m/s | -58.7°C | 1.7% | 65.6hPa | 0V | 00:00:00 | 00:00:00 | 00:00:00 | |
| AUTORXJP | 2026-09-06 00:24:26 | 43.74246 | 4.72429 | 108° | 51km/h | 19152m | 4.2m/s | -60.1°C | 1.9% | 67.2hPa | 0V | 00:00:00 | 00:00:00 | 00:00:00 | |
| AUTORXJP | 2026-09-06 00:23:55 | 43.74331 | 4.71978 | 106° | 35km/h | 18999m | 5.2m/s | -59.6°C | 2.1% | 68.9hPa | 0V | 00:00:00 | 00:00:00 | 00:00:00 | |
| AUTORXJP | 2026-09-06 00:23:24 | 43.74407 | 4.71681 | 114° | 31km/h | 18842m | 5.6m/s | -59.7°C | 2.3% | 70.7hPa | 0V | 00:00:00 | 00:00:00 | 00:00:00 | |
| AUTORXJP | 2026-09-06 00:22:53 | 43.74463 | 4.71353 | 85° | 22km/h | 18692m | 5.8m/s | -59.9°C | 2.5% | 72.4hPa | 0V | 00:00:00 | 00:00:00 | 00:00:00 | |
| AUTORXJP | 2026-09-06 00:22:22 | 43.74441 | 4.71070 | 88° | 24km/h | 18549m | 4.6m/s | -60.4°C | 2.8% | 74.1hPa | 0V | 00:00:00 | 00:00:00 | 00:00:00 | |
| AUTORXJP | 2026-09-06 00:21:51 | 43.74449 | 4.70918 | 126° | 13km/h | 18407m | 3.4m/s | -60.3°C | 3.0% | 75.8hPa | 0V | 00:00:00 | 00:00:00 | 00:00:00 | |
| AUTORXJP | 2026-09-06 00:21:20 | 43.74544 | 4.70787 | 166° | 20km/h | 18270m | 4.6m/s | -60.8°C | 3.3% | 77.5hPa | 0V | 00:00:00 | 00:00:00 | 00:00:00 | |
| AUTORXJP | 2026-09-06 00:20:48 | 43.74632 | 4.70627 | 121° | 7km/h | 18133m | 4.9m/s | -60.9°C | 3.7% | 79.2hPa | 0V | 00:00:00 | 00:00:00 | 00:00:00 | |
| AUTORXJP | 2026-09-06 00:20:17 | 43.74631 | 4.70569 | 76° | 2km/h | 17991m | 4.2m/s | -60.6°C | 4.1% | 81.1hPa | 0V | 00:00:00 | 00:00:00 | 00:00:00 | |
| AUTORXJP | 2026-09-06 00:19:46 | 43.74703 | 4.70520 | 156° | 26km/h | 17844m | 3.3m/s | -60.7°C | 4.4% | 83.0hPa | 0V | 00:00:00 | 00:00:00 | 00:00:00 | |
| AUTORXJP | 2026-09-06 00:19:15 | 43.74866 | 4.70374 | 126° | 31km/h | 17695m | 4.9m/s | -61.6°C | 4.7% | 85.1hPa | 0V | 00:00:00 | 00:00:00 | 00:00:00 | |
| AUTORXJP | 2026-09-06 00:18:44 | 43.75033 | 4.70084 | 122° | 35km/h | 17550m | 5.6m/s | -61.9°C | 5.0% | 87.1hPa | 0V | 00:00:00 | 00:00:00 | 00:00:00 | |
| AUTORXJP | 2026-09-06 00:18:13 | 43.75145 | 4.69739 | 110° | 35km/h | 17407m | 4.4m/s | -62.7°C | 5.3% | 89.2hPa | 0V | 00:00:00 | 00:00:00 | 00:00:00 | |
| AUTORXJP | 2026-09-06 00:17:42 | 43.75199 | 4.69401 | 96° | 35km/h | 17267m | 3.9m/s | -62.7°C | 5.7% | 91.2hPa | 0V | 00:00:00 | 00:00:00 | 00:00:00 | |
| AUTORXJP | 2026-09-06 00:17:11 | 43.75200 | 4.69031 | 95° | 31km/h | 17133m | 4.2m/s | -62.9°C | 6.1% | 93.2hPa | 0V | 00:00:00 | 00:00:00 | 00:00:00 | |
| AUTORXJP | 2026-09-06 00:16:40 | 43.75204 | 4.68743 | 96° | 24km/h | 17000m | 4.0m/s | -63.1°C | 6.5% | 95.2hPa | 0V | 00:00:00 | 00:00:00 | 00:00:00 | |
| AUTORXJP | 2026-09-06 00:16:09 | 43.75214 | 4.68552 | 104° | 18km/h | 16865m | 3.6m/s | -62.6°C | 7.0% | 97.4hPa | 0V | 00:00:00 | 00:00:00 | 00:00:00 | |
| AUTORXJP | 2026-09-06 00:15:38 | 43.75270 | 4.68418 | 96° | 16km/h | 16733m | 5.2m/s | -62.9°C | 7.5% | 99.5hPa | 0V | 00:00:00 | 00:00:00 | 00:00:00 | |
| AUTORXJP | 2026-09-06 00:15:07 | 43.75322 | 4.68232 | 121° | 18km/h | 16596m | 3.4m/s | -62.2°C | 8.4% | 101.7hPa | 0V | 00:00:00 | 00:00:00 | 00:00:00 | |
| AUTORXJP | 2026-09-06 00:14:36 | 43.75397 | 4.68011 | 118° | 27km/h | 16451m | 5.8m/s | -61.6°C | 9.1% | 104.1hPa | 0V | 00:00:00 | 00:00:00 | 00:00:00 | |
| AUTORXJP | 2026-09-06 00:14:05 | 43.75486 | 4.67737 | 115° | 24km/h | 16306m | 4.1m/s | -62.3°C | 9.8% | 106.6hPa | 0V | 00:00:00 | 00:00:00 | 00:00:00 | |
| AUTORXJP | 2026-09-06 00:13:33 | 43.75522 | 4.67436 | 96° | 31km/h | 16167m | 5.3m/s | -62.6°C | 10.5% | 109.1hPa | 0V | 00:00:00 | 00:00:00 | 00:00:00 | |
| AUTORXJP | 2026-09-06 00:13:02 | 43.75506 | 4.67080 | 78° | 24km/h | 16022m | 6.0m/s | -62.9°C | 11.1% | 111.7hPa | 0V | 00:00:00 | 00:00:00 | 00:00:00 | |
| AUTORXJP | 2026-09-06 00:12:31 | 43.75554 | 4.66809 | 117° | 26km/h | 15880m | 5.2m/s | -63.8°C | 11.6% | 114.2hPa | 0V | 00:00:00 | 00:00:00 | 00:00:00 | |
| AUTORXJP | 2026-09-06 00:12:00 | 43.75629 | 4.66540 | 119° | 22km/h | 15738m | 4.5m/s | -64.5°C | 12.2% | 117.0hPa | 0V | 00:00:00 | 00:00:00 | 00:00:00 | |
| AUTORXJP | 2026-09-06 00:11:29 | 43.75688 | 4.66233 | 105° | 35km/h | 15601m | 5.1m/s | -64.5°C | 13.2% | 119.6hPa | 0V | 00:00:00 | 00:00:00 | 00:00:00 | |
| AUTORXJP | 2026-09-06 00:10:58 | 43.75733 | 4.65900 | 93° | 26km/h | 15464m | 5.1m/s | -64.2°C | 14.3% | 122.3hPa | 0V | 00:00:00 | 00:00:00 | 00:00:00 | |
| AUTORXJP | 2026-09-06 00:10:27 | 43.75759 | 4.65531 | 90° | 35km/h | 15325m | 4.7m/s | -63.8°C | 15.5% | 125.1hPa | 0V | 00:00:00 | 00:00:00 | 00:00:00 | |
| AUTORXJP | 2026-09-06 00:09:56 | 43.75711 | 4.65124 | 77° | 37km/h | 15182m | 5.2m/s | -64.5°C | 16.6% | 128.1hPa | 0V | 00:00:00 | 00:00:00 | 00:00:00 | |
| AUTORXJP | 2026-09-06 00:09:25 | 43.75645 | 4.64773 | 61° | 31km/h | 15042m | 4.1m/s | -64.4°C | 18.4% | 131.1hPa | 0V | 00:00:00 | 00:00:00 | 00:00:00 | |
| AUTORXJP | 2026-09-06 00:08:54 | 43.75621 | 4.64443 | 85° | 35km/h | 14898m | 4.2m/s | -63.3°C | 21.0% | 134.2hPa | 0V | 00:00:00 | 00:00:00 | 00:00:00 | |
| AUTORXJP | 2026-09-06 00:08:23 | 43.75665 | 4.64113 | 91° | 37km/h | 14751m | 4.0m/s | -62.9°C | 24.4% | 137.4hPa | 0V | 00:00:00 | 00:00:00 | 00:00:00 | |
| AUTORXJP | 2026-09-06 00:07:52 | 43.75727 | 4.63729 | 97° | 38km/h | 14604m | 5.6m/s | -62.5°C | 28.7% | 140.7hPa | 0V | 00:00:00 | 00:00:00 | 00:00:00 | |
| AUTORXJP | 2026-09-06 00:07:21 | 43.75708 | 4.63385 | 78° | 27km/h | 14455m | 3.6m/s | -62.1°C | 33.5% | 144.2hPa | 0V | 00:00:00 | 00:00:00 | 00:00:00 | |
| AUTORXJP | 2026-09-06 00:06:50 | 43.75593 | 4.63217 | 12° | 16km/h | 14313m | 4.0m/s | -62.8°C | 36.6% | 147.5hPa | 0V | 00:00:00 | 00:00:00 | 00:00:00 | |
| AUTORXJP | 2026-09-06 00:06:18 | 43.75491 | 4.63173 | 9° | 9km/h | 14178m | 5.1m/s | -66.7°C | 37.5% | 150.8hPa | 0V | 00:00:00 | 00:00:00 | 00:00:00 | |
| AUTORXJP | 2026-09-06 00:05:47 | 43.75434 | 4.63112 | 73° | 9km/h | 14049m | 3.7m/s | -67.5°C | 37.2% | 154.1hPa | 0V | 00:00:00 | 00:00:00 | 00:00:00 | |
| AUTORXJP | 2026-09-06 00:05:16 | 43.75406 | 4.62918 | 76° | 29km/h | 13914m | 4.5m/s | -68.0°C | 36.4% | 157.5hPa | 0V | 00:00:00 | 00:00:00 | 00:00:00 | |
| AUTORXJP | 2026-09-06 00:04:46 | 43.75344 | 4.62599 | 69° | 31km/h | 13783m | 5.4m/s | -67.1°C | 35.9% | 161.1hPa | 0V | 00:00:00 | 00:00:00 | 00:00:00 | |
| AUTORXJP | 2026-09-06 00:04:15 | 43.75230 | 4.62273 | 44° | 37km/h | 13643m | 5.8m/s | -66.1°C | 35.7% | 164.8hPa | 0V | 00:00:00 | 00:00:00 | 00:00:00 | |
| AUTORXJP | 2026-09-06 00:03:43 | 43.75056 | 4.61953 | 52° | 37km/h | 13509m | 4.5m/s | -64.9°C | 36.2% | 168.5hPa | 0V | 00:00:00 | 00:00:00 | 00:00:00 | |
| AUTORXJP | 2026-09-06 00:02:51 | 43.74632 | 4.61357 | 28° | 35km/h | 13240m | 4.1m/s | -62.9°C | 39.9% | 176.0hPa | 0V | 00:00:00 | 00:00:00 | 00:00:00 | |
| AUTORXJP | 2026-09-06 00:02:10 | 43.74393 | 4.61177 | 21° | 33km/h | 13107m | 4.7m/s | -62.3°C | 43.0% | 179.9hPa | 0V | 00:00:00 | 00:00:00 | 00:00:00 | |
| AUTORXJP | 2026-09-06 00:01:43 | 43.74182 | 4.61053 | 17° | 27km/h | 12973m | 4.1m/s | -61.7°C | 46.0% | 183.9hPa | 0V | 00:00:00 | 00:00:00 | 00:00:00 | |
| AUTORXJP | 2026-09-06 00:01:10 | 43.73982 | 4.60823 | 33° | 33km/h | 12843m | 3.2m/s | -60.8°C | 47.1% | 187.8hPa | 0V | 00:00:00 | 00:00:00 | 00:00:00 | |
| AUTORXJP | 2026-09-06 00:00:41 | 43.73791 | 4.60557 | 44° | 37km/h | 12714m | 5.1m/s | -59.9°C | 46.5% | 191.7hPa | 0V | 00:00:00 | 00:00:00 | 00:00:00 | |
| AUTORXJP | 2026-09-06 00:00:07 | 43.73599 | 4.60293 | 47° | 35km/h | 12582m | 3.9m/s | -59.0°C | 45.3% | 195.8hPa | 0V | 00:00:00 | 00:00:00 | 00:00:00 | |
| AUTORXJP | 2026-09-05 23:59:34 | 43.73416 | 4.60077 | 34° | 22km/h | 12449m | 4.1m/s | -57.9°C | 45.8% | 200.1hPa | 0V | 00:00:00 | 00:00:00 | 00:00:00 | |
| AUTORXJP | 2026-09-05 23:59:03 | 43.73242 | 4.59890 | 49° | 24km/h | 12305m | 4.1m/s | -56.6°C | 49.3% | 204.6hPa | 0V | 00:00:00 | 00:00:00 | 00:00:00 | |
| AUTORXJP | 2026-09-05 23:58:32 | 43.73074 | 4.59691 | 50° | 27km/h | 12168m | 4.3m/s | -55.9°C | 52.7% | 209.1hPa | 0V | 00:00:00 | 00:00:00 | 00:00:00 | |
| AUTORXJP | 2026-09-05 23:58:01 | 43.72934 | 4.59476 | 42° | 22km/h | 12036m | 5.3m/s | -54.8°C | 53.7% | 213.5hPa | 0V | 00:00:00 | 00:00:00 | 00:00:00 | |
| AUTORXJP | 2026-09-05 23:57:30 | 43.72814 | 4.59258 | 47° | 22km/h | 11905m | 4.3m/s | -53.8°C | 54.1% | 217.9hPa | 0V | 00:00:00 | 00:00:00 | 00:00:00 | |
| AUTORXJP | 2026-09-05 23:56:59 | 43.72707 | 4.59046 | 49° | 24km/h | 11776m | 2.2m/s | -52.7°C | 52.8% | 222.4hPa | 0V | 00:00:00 | 00:00:00 | 00:00:00 | |
| AUTORXJP | 2026-09-05 23:56:28 | 43.72600 | 4.58812 | 46° | 24km/h | 11653m | 3.9m/s | -51.6°C | 49.8% | 226.8hPa | 0V | 00:00:00 | 00:00:00 | 00:00:00 | |
| AUTORXJP | 2026-09-05 23:55:57 | 43.72491 | 4.58587 | 47° | 26km/h | 11530m | 3.5m/s | -50.5°C | 42.7% | 231.0hPa | 0V | 00:00:00 | 00:00:00 | 00:00:00 | |
| AUTORXJP | 2026-09-05 23:55:26 | 43.72382 | 4.58367 | 59° | 16km/h | 11404m | 4.2m/s | -49.3°C | 37.8% | 235.5hPa | 0V | 00:00:00 | 00:00:00 | 00:00:00 | |
| AUTORXJP | 2026-09-05 23:54:55 | 43.72292 | 4.58153 | 71° | 35km/h | 11268m | 6.3m/s | -48.0°C | 33.8% | 240.4hPa | 0V | 00:00:00 | 00:00:00 | 00:00:00 | |
| AUTORXJP | 2026-09-05 23:54:24 | 43.72202 | 4.57958 | 63° | 29km/h | 11104m | 5.5m/s | -46.3°C | 30.2% | 246.5hPa | 0V | 00:00:00 | 00:00:00 | 00:00:00 | |
| AUTORXJP | 2026-09-05 23:53:52 | 43.72124 | 4.57756 | 48° | 13km/h | 10954m | 2.4m/s | -44.9°C | 27.2% | 252.1hPa | 0V | 00:00:00 | 00:00:00 | 00:00:00 | |
| AUTORXJP | 2026-09-05 23:53:22 | 43.72052 | 4.57564 | 67° | 24km/h | 10814m | 4.8m/s | -43.6°C | 23.9% | 257.6hPa | 0V | 00:00:00 | 00:00:00 | 00:00:00 | |
| AUTORXJP | 2026-09-05 23:52:50 | 43.72030 | 4.57353 | 91° | 15km/h | 10657m | 3.6m/s | -42.2°C | 20.9% | 263.6hPa | 0V | 00:00:00 | 00:00:00 | 00:00:00 | |
| AUTORXJP | 2026-09-05 23:52:19 | 43.72025 | 4.57127 | 98° | 24km/h | 10523m | 3.5m/s | -41.1°C | 20.4% | 268.8hPa | 0V | 00:00:00 | 00:00:00 | 00:00:00 | |
| AUTORXJP | 2026-09-05 23:51:48 | 43.72055 | 4.56903 | 113° | 26km/h | 10395m | 5.6m/s | -40.5°C | 20.4% | 274.1hPa | 0V | 00:00:00 | 00:00:00 | 00:00:00 | |
| AUTORXJP | 2026-09-05 23:51:17 | 43.72145 | 4.56617 | 103° | 31km/h | 10267m | 2.5m/s | -39.8°C | 22.0% | 279.3hPa | 0V | 00:00:00 | 00:00:00 | 00:00:00 | |
| AUTORXJP | 2026-09-05 23:50:46 | 43.72237 | 4.56305 | 121° | 31km/h | 10137m | 4.9m/s | -38.8°C | 22.8% | 284.7hPa | 0V | 00:00:00 | 00:00:00 | 00:00:00 | |
| AUTORXJP | 2026-09-05 23:50:15 | 43.72312 | 4.55992 | 106° | 31km/h | 10001m | 4.2m/s | -37.7°C | 23.3% | 290.3hPa | 0V | 00:00:00 | 00:00:00 | 00:00:00 | |
| AUTORXJP | 2026-09-05 23:49:13 | 43.72518 | 4.55347 | 119° | 24km/h | 9673m | 4.7m/s | -34.7°C | 21.0% | 304.5hPa | 0V | 00:00:00 | 00:00:00 | 00:00:00 | |
| AUTORXJP | 2026-09-05 23:48:42 | 43.72576 | 4.55218 | 124° | 24km/h | 9604m | 3.8m/s | -34.1°C | 20.9% | 307.6hPa | 0V | 00:00:00 | 00:00:00 | 00:00:00 | |
| AUTORXJP | 2026-09-05 23:48:11 | 43.72706 | 4.54935 | 124° | 24km/h | 9448m | 5.2m/s | -32.6°C | 19.5% | 314.5hPa | 0V | 00:00:00 | 00:00:00 | 00:00:00 | |
| AUTORXJP | 2026-09-05 23:47:40 | 43.72780 | 4.54750 | 136° | 24km/h | 9346m | 4.4m/s | -31.7°C | 18.9% | 319.1hPa | 0V | 00:00:00 | 00:00:00 | 00:00:00 | |
| AUTORXJP | 2026-09-05 23:47:09 | 43.72857 | 4.54559 | 131° | 22km/h | 9211m | 3.2m/s | -30.5°C | 18.8% | 325.3hPa | 0V | 00:00:00 | 00:00:00 | 00:00:00 | |
| AUTORXJP | 2026-09-05 23:46:37 | 43.72932 | 4.54372 | 123° | 20km/h | 9084m | 4.0m/s | -29.5°C | 19.2% | 331.1hPa | 0V | 00:00:00 | 00:00:00 | 00:00:00 | |
| AUTORXJP | 2026-09-05 23:46:06 | 43.72997 | 4.54205 | 121° | 26km/h | 8969m | 4.8m/s | -28.5°C | 18.8% | 336.6hPa | 0V | 00:00:00 | 00:00:00 | 00:00:00 | |
| AUTORXJP | 2026-09-05 23:45:35 | 43.73109 | 4.53986 | 108° | 15km/h | 8802m | 3.1m/s | -27.0°C | 21.2% | 344.5hPa | 0V | 00:00:00 | 00:00:00 | 00:00:00 | |
| AUTORXJP | 2026-09-05 23:45:04 | 43.73195 | 4.53824 | 122° | 20km/h | 8662m | 4.2m/s | -26.0°C | 22.8% | 351.2hPa | 0V | 00:00:00 | 00:00:00 | 00:00:00 |